Decoded Metar for PAII (EGEGIK in AK, USA) (IATA:EII) | Meteo·Mobile Aviation Weather
aviador You're here:

PAII Decoded Metar

EGEGIK in AK, USA
Report Time2018-09-20 01:56:00
UTC Time2018-09-20 02:15:04
Flight Rules vfr VFR
Wind290° at 10 kt
W.Decomp.*RWY 30: 8.8 kt HW 4.7 kt LCW
RWY 21: 4.7 kt HW 8.8 kt RCW
W.Rank290° ranks 13
Current wind is above 290° avg. (9.5)
Visibility9999 m
Phenomena:N/A
Clouds:Few 019 Hf
Overcast 040 Hf
Expected CloudBase > 1,600 ft AGL from Temp-Dew spread
Ceiling4,000 ft
Temp12°C (ISA -3)
Dew Point08°C (77% RH)
AAT8.0°C
QNH1026 hPa
Density Alt-528 ft
Elevation98 ft
Report Wrong Elevation
Raw Report
PAII 200156Z AUTO 29010KT 10SM FEW019 OVC040 12/08 A3031 RMK AO2
SLP268 T01220083=

Extra information for PAII:More info

Metar Taf Metar & Taf Last 4 Metars F.Rules Stats Wind Profile Meteogram Temp Stats Airport Information Weather charts Add Link Nearby VenuesMetar ALERT Operation Metar Decoded Social comments

AIRNAV info for PAII